Rotorua, New Zealand
Current Conditions -  °F | °C
As of 7:30 AM on Friday 24 Oct 2014 (Local Time) from NZAA Reporting Station
Rain Showers Rain Showers  
Wind Chill: 55°   Ceiling: 3600
Heat Index: 55°   Visibility: 3mi
Dew Point: 54°   Wind: 18mph
Humidity: 94%   Direction: 250°WSW
Pressure: 29.94"   Gusts: NA
Location:  38.14°S, 176.24°E
Report Text: NZAA 231930Z AUTO 25016KT 5000 -SHRA FEW016/// BKN036///OVC045/// 13/12 Q1014 TEMPO 6000 SHRA
Loading
Personal Weather Stations






























Interactive Weather Map
Tropical Storm Tracking
New forecast layout! Learn more

10-Day Weather Forecast

Advertisements
Track Severe Weather on mobile